createdAt,value
2023-01-17T00:02:14.461Z,1.93
2023-01-17T00:05:00.226Z,0.90
2023-01-17T00:07:46.209Z,0.70
2023-01-17T00:10:21.719Z,0.40
2023-01-17T00:12:53.472Z,2.07
2023-01-17T00:15:22.860Z,0.83
2023-01-17T00:17:50.216Z,1.00
2023-01-17T00:20:37.168Z,0.30
2023-01-17T00:23:26.819Z,1.20
2023-01-17T00:26:02.937Z,1.47
2023-01-17T00:28:35.255Z,0.30
2023-01-17T00:31:02.625Z,0.73
2023-01-17T00:33:29.589Z,1.13
2023-01-17T00:35:58.200Z,0.90
2023-01-17T00:38:33.705Z,0.67
2023-01-17T00:41:14.698Z,0.80
2023-01-17T00:44:00.187Z,0.37
2023-01-17T00:46:45.772Z,0.40
2023-01-17T00:49:31.350Z,2.00
2023-01-17T00:52:16.866Z,0.47
2023-01-17T00:55:02.189Z,3.60
2023-01-17T00:57:47.963Z,3.13
2023-01-17T01:00:33.520Z,1.03
2023-01-17T01:03:18.986Z,4.00
2023-01-17T01:06:04.459Z,0.47
2023-01-17T01:08:49.950Z,1.13
2023-01-17T01:11:37.985Z,4.20
2023-01-17T01:14:25.057Z,0.60
2023-01-17T01:17:10.548Z,2.47
2023-01-17T01:19:56.043Z,0.50
2023-01-17T01:22:41.288Z,5.30
2023-01-17T01:25:27.365Z,1.77
2023-01-17T01:28:24.358Z,0.90
2023-01-17T01:31:10.009Z,1.53
2023-01-17T01:33:37.092Z,0.70
2023-01-17T01:36:04.083Z,1.53
2023-01-17T01:38:32.135Z,4.80
2023-01-17T01:40:58.866Z,2.37
2023-01-17T01:43:50.325Z,0.73
2023-01-17T01:46:28.908Z,1.13
2023-01-17T01:49:06.114Z,1.07
2023-01-17T01:51:39.278Z,0.80
2023-01-17T01:54:11.873Z,0.87
2023-01-17T01:56:39.507Z,2.03
2023-01-17T01:59:10.068Z,1.33
2023-01-17T02:01:37.557Z,1.33
2023-01-17T02:04:09.829Z,2.93
2023-01-17T02:06:47.925Z,1.67
2023-01-17T02:09:17.227Z,1.57
2023-01-17T02:11:45.966Z,1.60
2023-01-17T02:14:17.744Z,3.03
2023-01-17T02:17:12.704Z,0.97
2023-01-17T02:20:14.679Z,4.70
2023-01-17T02:23:12.758Z,0.93
2023-01-17T02:25:54.540Z,4.10
2023-01-17T02:28:45.469Z,0.73
2023-01-17T02:31:20.409Z,2.90
2023-01-17T02:34:24.655Z,1.90
2023-01-17T02:37:00.961Z,2.27
2023-01-17T02:39:34.472Z,1.90
2023-01-17T02:42:06.519Z,1.90
2023-01-17T02:44:43.329Z,1.63
2023-01-17T02:47:39.330Z,3.93
2023-01-17T02:50:20.569Z,2.87
2023-01-17T02:53:04.107Z,1.90
2023-01-17T02:55:50.516Z,0.90
2023-01-17T02:58:53.674Z,1.90
2023-01-17T03:01:30.278Z,3.93
2023-01-17T03:04:06.400Z,2.20
2023-01-17T03:06:58.513Z,1.20
2023-01-17T03:09:26.716Z,2.80
2023-01-17T03:11:53.749Z,1.47
2023-01-17T03:14:20.541Z,0.80
2023-01-17T03:16:47.645Z,1.90
2023-01-17T03:19:16.064Z,0.70
2023-01-17T03:21:43.039Z,0.73
2023-01-17T03:24:09.884Z,0.50
2023-01-17T03:26:36.670Z,3.23
2023-01-17T03:29:03.387Z,2.40
2023-01-17T03:31:30.138Z,2.50
2023-01-17T03:33:56.994Z,2.00
2023-01-17T03:36:23.677Z,1.20
2023-01-17T03:38:50.370Z,0.93
2023-01-17T03:41:17.134Z,1.00
2023-01-17T03:43:43.909Z,1.77
2023-01-17T03:46:22.887Z,5.47
2023-01-17T03:48:50.335Z,2.50
2023-01-17T03:51:17.527Z,1.63
2023-01-17T03:53:46.907Z,2.20
2023-01-17T03:56:14.492Z,1.10
2023-01-17T03:58:41.623Z,1.40
2023-01-17T04:01:08.894Z,0.93
2023-01-17T04:03:35.772Z,3.93
2023-01-17T04:06:02.495Z,3.63
2023-01-17T04:08:29.410Z,4.53
2023-01-17T04:10:56.456Z,2.07
2023-01-17T04:13:23.152Z,0.97
2023-01-17T04:15:51.406Z,3.37
2023-01-17T04:18:20.258Z,1.47
2023-01-17T04:20:47.598Z,3.23
2023-01-17T04:23:14.379Z,1.13
2023-01-17T04:25:41.143Z,2.67
2023-01-17T04:28:08.273Z,2.93
2023-01-17T04:30:34.982Z,1.73
2023-01-17T04:33:02.134Z,1.23
2023-01-17T04:35:33.373Z,0.60
2023-01-17T04:38:00.515Z,1.20
2023-01-17T04:40:27.769Z,5.20
2023-01-17T04:42:54.545Z,2.03
2023-01-17T04:45:21.386Z,3.27
2023-01-17T04:47:48.093Z,0.93
2023-01-17T04:50:14.827Z,2.47
2023-01-17T04:52:41.606Z,1.37
2023-01-17T04:55:08.805Z,4.90
2023-01-17T04:57:35.893Z,2.37
2023-01-17T05:00:03.441Z,1.67
2023-01-17T05:02:30.223Z,1.53
2023-01-17T05:04:57.018Z,3.13
2023-01-17T05:07:23.727Z,1.63
2023-01-17T05:09:50.422Z,1.50
2023-01-17T05:12:17.203Z,5.03
2023-01-17T05:14:43.903Z,7.33
2023-01-17T05:17:11.283Z,3.67
2023-01-17T05:19:38.241Z,2.87
2023-01-17T05:22:14.834Z,2.03
2023-01-17T05:24:46.428Z,5.50
2023-01-17T05:27:14.131Z,3.43
2023-01-17T05:29:41.208Z,3.63
2023-01-17T05:32:08.263Z,1.60
2023-01-17T05:34:35.115Z,4.97
2023-01-17T05:37:01.999Z,5.40
2023-01-17T05:39:30.882Z,3.10
2023-01-17T05:41:58.249Z,9.07
2023-01-17T05:44:25.048Z,6.80
2023-01-17T05:46:51.726Z,11.37
2023-01-17T05:49:18.407Z,6.37
2023-01-17T05:51:45.110Z,4.90
2023-01-17T05:54:11.855Z,6.70
2023-01-17T05:56:38.685Z,6.30
2023-01-17T05:59:05.440Z,2.90
2023-01-17T06:01:32.261Z,6.67
2023-01-17T06:03:59.029Z,6.37
2023-01-17T06:06:25.819Z,5.83
2023-01-17T06:08:52.619Z,6.27
2023-01-17T06:11:19.399Z,6.47
2023-01-17T06:13:48.037Z,8.10
2023-01-17T06:16:14.812Z,13.37
2023-01-17T06:18:41.585Z,5.07
2023-01-17T06:21:08.366Z,8.03
2023-01-17T06:23:35.061Z,8.67
2023-01-17T06:26:03.805Z,7.20
2023-01-17T06:28:31.007Z,9.63
2023-01-17T06:30:58.023Z,6.27
2023-01-17T06:33:24.759Z,8.80
2023-01-17T06:35:52.742Z,7.80
2023-01-17T06:38:20.246Z,8.10
2023-01-17T06:40:47.094Z,9.10
2023-01-17T06:43:13.895Z,6.60
2023-01-17T06:45:40.751Z,8.90
2023-01-17T06:48:07.782Z,8.83
2023-01-17T06:50:34.907Z,9.03
2023-01-17T06:53:04.256Z,8.17
2023-01-17T06:55:33.923Z,9.53
2023-01-17T06:58:02.565Z,14.03
2023-01-17T07:00:31.107Z,9.80
2023-01-17T07:02:58.110Z,10.07
2023-01-17T07:05:24.938Z,7.77
2023-01-17T07:07:51.705Z,12.53
2023-01-17T07:10:18.499Z,12.73
2023-01-17T07:12:45.537Z,11.37
2023-01-17T07:15:13.026Z,11.63
2023-01-17T07:17:39.767Z,11.00
2023-01-17T07:20:07.132Z,14.33
2023-01-17T07:22:34.095Z,7.83
2023-01-17T07:25:00.859Z,11.57
2023-01-17T07:27:30.455Z,11.53
2023-01-17T07:29:57.714Z,8.10
2023-01-17T07:32:26.692Z,10.57
2023-01-17T07:34:54.235Z,11.20
2023-01-17T07:37:21.108Z,11.97
2023-01-17T07:39:47.949Z,10.33
2023-01-17T07:42:14.901Z,11.07
2023-01-17T07:44:44.103Z,7.83
2023-01-17T07:47:11.832Z,13.57
2023-01-17T07:49:38.996Z,15.57
2023-01-17T07:52:09.183Z,14.03
2023-01-17T07:54:36.094Z,9.00
2023-01-17T07:57:03.497Z,12.57
2023-01-17T07:59:30.321Z,10.93
2023-01-17T08:01:57.245Z,12.27
2023-01-17T08:04:29.006Z,7.47
2023-01-17T08:06:55.801Z,12.67
2023-01-17T08:09:22.551Z,10.27
2023-01-17T08:11:49.303Z,9.30
2023-01-17T08:14:16.093Z,10.20
2023-01-17T08:16:42.939Z,11.67
2023-01-17T08:19:10.347Z,11.77
2023-01-17T08:21:37.276Z,11.87
2023-01-17T08:24:04.598Z,14.57
2023-01-17T08:26:31.335Z,14.43
2023-01-17T08:29:02.982Z,9.03
2023-01-17T08:31:34.371Z,12.33
2023-01-17T08:34:01.343Z,9.40
2023-01-17T08:36:28.848Z,8.93
2023-01-17T08:38:55.612Z,9.27
2023-01-17T08:41:23.777Z,8.87
2023-01-17T08:43:51.942Z,9.00
2023-01-17T08:46:19.697Z,11.67
2023-01-17T08:48:46.732Z,10.67
2023-01-17T08:51:13.800Z,8.37
2023-01-17T08:53:40.732Z,9.93
2023-01-17T08:56:08.004Z,9.10
2023-01-17T08:58:35.869Z,7.80
2023-01-17T09:01:04.968Z,17.67
2023-01-17T09:03:32.872Z,12.90
2023-01-17T09:06:03.532Z,9.30
2023-01-17T09:08:30.489Z,8.57
2023-01-17T09:10:57.287Z,10.20
2023-01-17T09:13:24.248Z,10.33
2023-01-17T09:15:50.999Z,10.10
2023-01-17T09:18:17.799Z,8.37
2023-01-17T09:20:44.514Z,13.23
2023-01-17T09:23:11.261Z,10.20
2023-01-17T09:25:39.816Z,10.17
2023-01-17T09:28:06.604Z,7.80
2023-01-17T09:30:33.443Z,9.60
2023-01-17T09:33:00.247Z,8.40
2023-01-17T09:35:27.028Z,12.07
2023-01-17T09:37:54.928Z,8.57
2023-01-17T09:40:25.495Z,8.53
2023-01-17T09:42:58.136Z,10.57
2023-01-17T09:45:27.811Z,9.20
2023-01-17T09:47:55.209Z,8.17
2023-01-17T09:50:25.192Z,11.00
2023-01-17T09:53:01.329Z,9.93
2023-01-17T09:55:34.763Z,9.53
2023-01-17T09:58:39.448Z,6.50
2023-01-17T10:01:33.057Z,8.33
2023-01-17T10:04:41.030Z,10.07
2023-01-17T10:07:40.748Z,12.93
2023-01-17T10:10:19.106Z,12.90
2023-01-17T10:12:51.108Z,7.87
2023-01-17T10:15:46.337Z,8.27
2023-01-17T10:18:29.969Z,8.63
2023-01-17T10:21:06.336Z,5.97
2023-01-17T10:24:08.843Z,6.17
2023-01-17T10:26:36.627Z,7.07
2023-01-17T10:29:08.542Z,9.97
2023-01-17T10:31:42.277Z,8.40
2023-01-17T10:34:18.468Z,7.20
2023-01-17T10:36:49.719Z,7.30
2023-01-17T10:39:29.259Z,6.87
2023-01-17T10:42:07.328Z,5.33
2023-01-17T10:44:59.422Z,9.43
2023-01-17T10:47:31.069Z,9.33
2023-01-17T10:49:59.389Z,6.73
2023-01-17T10:52:43.325Z,6.53
2023-01-17T10:55:34.828Z,9.37
2023-01-17T10:58:02.944Z,7.63
2023-01-17T11:00:40.055Z,7.40
2023-01-17T11:03:10.090Z,4.80
2023-01-17T11:05:36.897Z,4.90
2023-01-17T11:08:06.806Z,9.67
2023-01-17T11:10:48.760Z,6.50
2023-01-17T11:13:24.689Z,11.43
2023-01-17T11:15:57.594Z,5.60
2023-01-17T11:18:34.880Z,5.37
2023-01-17T11:21:23.315Z,8.10
2023-01-17T11:23:58.289Z,8.10
2023-01-17T11:26:28.947Z,7.93
2023-01-17T11:29:14.772Z,6.77
2023-01-17T11:31:41.894Z,7.87
2023-01-17T11:34:22.929Z,13.07
2023-01-17T11:37:07.762Z,6.70
2023-01-17T11:39:34.559Z,8.43
2023-01-17T11:42:05.484Z,7.97
2023-01-17T11:44:34.735Z,8.37
2023-01-17T11:47:08.021Z,8.53
2023-01-17T11:49:34.823Z,5.33
2023-01-17T11:52:07.918Z,8.93
2023-01-17T11:54:42.487Z,4.83
2023-01-17T11:57:35.915Z,4.60
2023-01-17T12:00:35.203Z,6.20
2023-01-17T12:03:15.917Z,4.43
2023-01-17T12:06:07.590Z,4.87
2023-01-17T12:08:46.923Z,4.97
2023-01-17T12:12:04.427Z,4.93
2023-01-17T12:14:53.761Z,3.33
2023-01-17T12:17:39.152Z,2.83
2023-01-17T12:20:16.439Z,3.87
2023-01-17T12:22:52.034Z,6.67
2023-01-17T12:25:30.737Z,4.43
2023-01-17T12:28:12.667Z,2.60
2023-01-17T12:30:58.103Z,4.77
2023-01-17T12:33:30.535Z,3.63
2023-01-17T12:36:03.504Z,2.67
2023-01-17T12:38:35.669Z,6.47
2023-01-17T12:41:06.029Z,1.20
2023-01-17T12:43:37.306Z,3.03
2023-01-17T12:46:21.319Z,1.33
2023-01-17T12:48:53.195Z,1.67
2023-01-17T12:51:29.558Z,1.47
2023-01-17T12:54:24.978Z,3.50
2023-01-17T12:56:56.845Z,3.13
2023-01-17T12:59:41.452Z,1.20
2023-01-17T13:02:36.217Z,1.53
2023-01-17T13:05:23.833Z,2.53
2023-01-17T13:08:03.706Z,1.67
2023-01-17T13:10:48.077Z,1.70
2023-01-17T13:13:26.689Z,1.30
2023-01-17T13:16:16.796Z,1.80
2023-01-17T13:18:48.933Z,1.47
2023-01-17T13:21:15.607Z,4.10
2023-01-17T13:24:12.331Z,1.50
2023-01-17T13:27:20.981Z,3.10
2023-01-17T13:30:06.352Z,2.37
2023-01-17T13:33:16.695Z,2.40
2023-01-17T13:36:10.595Z,2.90
2023-01-17T13:38:54.993Z,0.60
2023-01-17T13:41:45.585Z,1.00
2023-01-17T13:44:27.172Z,3.27
2023-01-17T13:47:25.624Z,2.27
2023-01-17T13:49:56.347Z,2.87
2023-01-17T13:52:26.501Z,4.43
2023-01-17T13:54:57.494Z,1.03
2023-01-17T13:57:36.369Z,0.90
2023-01-17T14:00:16.385Z,1.00
2023-01-17T14:02:44.014Z,2.60
2023-01-17T14:05:23.996Z,2.20
2023-01-17T14:08:04.441Z,3.10
2023-01-17T14:10:34.495Z,1.20
2023-01-17T14:13:02.341Z,1.07
2023-01-17T14:15:32.348Z,3.43
2023-01-17T14:18:00.025Z,1.90
2023-01-17T14:20:27.491Z,3.53
2023-01-17T14:23:03.267Z,2.00
2023-01-17T14:25:38.055Z,0.90
2023-01-17T14:28:21.683Z,1.67
2023-01-17T14:30:54.314Z,2.17
2023-01-17T14:33:30.332Z,1.00
2023-01-17T14:36:00.740Z,2.07
2023-01-17T14:38:31.627Z,2.07
2023-01-17T14:41:07.909Z,1.73
2023-01-17T14:43:38.040Z,1.43
2023-01-17T14:46:23.751Z,2.10
2023-01-17T14:48:58.631Z,1.17
2023-01-17T14:51:25.328Z,1.70
2023-01-17T14:53:58.151Z,4.50
2023-01-17T14:56:27.016Z,2.20
2023-01-17T14:59:17.172Z,2.27
2023-01-17T15:02:06.024Z,2.33
2023-01-17T15:04:39.316Z,3.37
2023-01-17T15:07:07.613Z,2.33
2023-01-17T15:09:37.754Z,0.93
2023-01-17T15:12:08.379Z,1.10
2023-01-17T15:14:39.983Z,1.63
2023-01-17T15:17:25.178Z,1.90
2023-01-17T15:19:58.969Z,5.50
2023-01-17T15:22:27.045Z,3.63
2023-01-17T15:24:54.457Z,5.17
2023-01-17T15:27:21.640Z,1.23
2023-01-17T15:29:48.740Z,2.10
2023-01-17T15:32:24.666Z,3.27
2023-01-17T15:34:52.465Z,2.10
2023-01-17T15:37:39.972Z,3.23
2023-01-17T15:40:06.866Z,3.50
2023-01-17T15:42:36.299Z,1.67
2023-01-17T15:45:07.823Z,8.03
2023-01-17T15:47:40.004Z,1.67
2023-01-17T15:50:28.611Z,1.63
2023-01-17T15:53:03.681Z,3.70
2023-01-17T15:55:35.630Z,3.43
2023-01-17T15:58:03.921Z,2.63
2023-01-17T16:00:37.647Z,3.47
2023-01-17T16:03:19.681Z,4.77
2023-01-17T16:05:47.400Z,3.27
2023-01-17T16:08:16.235Z,2.97
2023-01-17T16:10:44.113Z,2.57
2023-01-17T16:13:12.781Z,4.23
2023-01-17T16:15:41.368Z,6.00
2023-01-17T16:18:23.916Z,6.10
2023-01-17T16:20:54.503Z,5.47
2023-01-17T16:23:21.402Z,2.90
2023-01-17T16:25:48.424Z,2.93
2023-01-17T16:28:15.224Z,4.03
2023-01-17T16:30:42.411Z,3.13
2023-01-17T16:33:12.105Z,2.03
2023-01-17T16:35:40.035Z,5.47
2023-01-17T16:38:16.063Z,2.50
2023-01-17T16:40:44.869Z,3.10
2023-01-17T16:43:13.090Z,3.33
2023-01-17T16:45:41.561Z,3.97
2023-01-17T16:48:08.840Z,4.03
2023-01-17T16:50:35.614Z,4.80
2023-01-17T16:53:02.536Z,4.30
2023-01-17T16:55:29.285Z,3.17
2023-01-17T16:57:58.186Z,4.53
2023-01-17T17:00:26.685Z,3.20
2023-01-17T17:02:53.960Z,2.90
2023-01-17T17:05:21.260Z,4.47
2023-01-17T17:07:50.802Z,5.13
2023-01-17T17:10:20.326Z,6.03
2023-01-17T17:12:47.477Z,5.57
2023-01-17T17:15:14.817Z,5.87
2023-01-17T17:17:43.179Z,6.23
2023-01-17T17:20:12.879Z,6.40
2023-01-17T17:22:42.940Z,46.07
2023-01-17T17:25:11.854Z,33.13
2023-01-17T17:27:38.879Z,20.10
2023-01-17T17:30:06.348Z,17.03
2023-01-17T17:32:33.141Z,15.70
2023-01-17T17:35:00.282Z,11.20
2023-01-17T17:37:30.110Z,6.83
2023-01-17T17:39:57.739Z,7.23
2023-01-17T17:42:24.532Z,14.77
2023-01-17T17:44:51.363Z,18.53
2023-01-17T17:47:18.045Z,24.50
2023-01-17T17:49:44.775Z,20.90
2023-01-17T17:52:11.738Z,23.73
2023-01-17T17:54:38.516Z,13.27
2023-01-17T17:57:06.533Z,8.93
2023-01-17T17:59:33.522Z,8.93
2023-01-17T18:02:00.290Z,5.47
2023-01-17T18:04:27.286Z,6.03
2023-01-17T18:06:58.250Z,7.33
2023-01-17T18:09:25.004Z,10.03
2023-01-17T18:11:52.071Z,11.07
2023-01-17T18:14:21.195Z,8.97
2023-01-17T18:16:48.170Z,11.33
2023-01-17T18:19:18.861Z,12.40
2023-01-17T18:21:46.334Z,9.07
2023-01-17T18:24:15.273Z,10.03
2023-01-17T18:26:44.445Z,6.03
2023-01-17T18:29:14.884Z,8.40
2023-01-17T18:31:42.798Z,8.60
2023-01-17T18:34:12.363Z,10.37
2023-01-17T18:36:39.226Z,13.03
2023-01-17T18:39:15.666Z,8.50
2023-01-17T18:41:42.757Z,9.57
2023-01-17T18:44:10.287Z,9.63
2023-01-17T18:46:38.167Z,8.30
2023-01-17T18:49:05.453Z,8.33
2023-01-17T18:51:34.488Z,6.40
2023-01-17T18:54:05.347Z,6.43
2023-01-17T18:56:34.309Z,8.90
2023-01-17T18:59:02.067Z,8.53
2023-01-17T19:01:32.024Z,9.07
2023-01-17T19:04:01.449Z,8.23
2023-01-17T19:06:31.237Z,11.23
2023-01-17T19:09:01.799Z,8.80
2023-01-17T19:11:28.968Z,9.57
2023-01-17T19:13:56.363Z,10.40
2023-01-17T19:16:29.119Z,9.27
2023-01-17T19:19:03.781Z,8.80
2023-01-17T19:21:30.996Z,8.50
2023-01-17T19:23:58.510Z,9.93
2023-01-17T19:26:27.367Z,8.97
2023-01-17T19:28:56.407Z,8.93
2023-01-17T19:31:26.608Z,10.93
2023-01-17T19:33:57.378Z,8.93
2023-01-17T19:36:33.726Z,10.90
2023-01-17T19:39:05.589Z,11.27
2023-01-17T19:41:34.825Z,12.17
2023-01-17T19:44:04.211Z,8.17
2023-01-17T19:46:32.386Z,11.90
2023-01-17T19:48:59.711Z,7.93
2023-01-17T19:51:27.339Z,8.27
2023-01-17T19:53:54.930Z,11.60
2023-01-17T19:56:24.610Z,11.77
2023-01-17T19:58:52.289Z,9.20
2023-01-17T20:01:23.982Z,12.33
2023-01-17T20:03:51.772Z,9.47
2023-01-17T20:06:23.974Z,9.27
2023-01-17T20:08:51.149Z,8.87
2023-01-17T20:11:20.835Z,14.37
2023-01-17T20:13:49.379Z,8.87
2023-01-17T20:16:17.319Z,9.17
2023-01-17T20:18:44.875Z,10.13
2023-01-17T20:21:20.262Z,14.17
2023-01-17T20:23:48.484Z,11.00
2023-01-17T20:26:43.978Z,12.37
2023-01-17T20:29:14.447Z,10.87
2023-01-17T20:31:42.770Z,11.13
2023-01-17T20:34:11.925Z,9.97
2023-01-17T20:36:41.631Z,10.07
2023-01-17T20:39:11.022Z,11.20
2023-01-17T20:41:40.468Z,10.33
2023-01-17T20:44:10.234Z,12.23
2023-01-17T20:46:40.977Z,10.20
2023-01-17T20:49:15.052Z,9.47
2023-01-17T20:51:44.129Z,14.23
2023-01-17T20:54:14.343Z,13.60
2023-01-17T20:56:41.531Z,12.93
2023-01-17T20:59:12.041Z,11.03
2023-01-17T21:01:39.186Z,10.57
2023-01-17T21:04:10.189Z,11.67
2023-01-17T21:06:38.740Z,9.77
2023-01-17T21:09:07.317Z,11.47
2023-01-17T21:11:34.543Z,12.63
2023-01-17T21:14:01.663Z,11.60
2023-01-17T21:16:29.114Z,9.47
2023-01-17T21:18:56.013Z,10.33
2023-01-17T21:21:26.054Z,11.67
2023-01-17T21:23:54.515Z,10.87
2023-01-17T21:26:22.702Z,8.13
2023-01-17T21:28:50.841Z,13.60
2023-01-17T21:31:25.845Z,8.43
2023-01-17T21:34:01.160Z,11.00
2023-01-17T21:36:32.626Z,10.77
2023-01-17T21:39:04.203Z,9.27
2023-01-17T21:41:34.577Z,9.43
2023-01-17T21:44:04.698Z,12.27
2023-01-17T21:46:31.812Z,8.33
2023-01-17T21:48:58.632Z,9.57
2023-01-17T21:51:45.737Z,9.80
2023-01-17T21:54:12.612Z,13.77
2023-01-17T21:57:11.814Z,21.30
2023-01-17T21:59:38.521Z,13.53
2023-01-17T22:02:10.461Z,12.30
2023-01-17T22:04:37.391Z,14.30
2023-01-17T22:07:04.356Z,16.47
2023-01-17T22:09:31.357Z,12.67
2023-01-17T22:11:58.030Z,15.87
2023-01-17T22:14:24.814Z,15.93
2023-01-17T22:16:52.636Z,12.60
2023-01-17T22:19:19.375Z,11.53
2023-01-17T22:21:46.130Z,12.53
2023-01-17T22:24:13.745Z,8.93
2023-01-17T22:26:41.901Z,11.03
2023-01-17T22:29:10.759Z,10.03
2023-01-17T22:31:37.729Z,9.63
2023-01-17T22:34:05.612Z,17.80
2023-01-17T22:36:33.250Z,11.30
2023-01-17T22:39:00.690Z,12.53
2023-01-17T22:41:33.780Z,10.10
2023-01-17T22:44:05.455Z,13.27
2023-01-17T22:46:35.536Z,16.17
2023-01-17T22:49:02.750Z,12.47
2023-01-17T22:51:29.864Z,11.50
2023-01-17T22:53:58.870Z,12.80
2023-01-17T22:56:28.999Z,13.13
2023-01-17T22:58:56.227Z,11.10
2023-01-17T23:01:25.619Z,12.70
2023-01-17T23:03:58.255Z,14.67
2023-01-17T23:06:30.443Z,11.53
2023-01-17T23:09:00.070Z,16.40
2023-01-17T23:11:43.436Z,11.57
2023-01-17T23:14:23.262Z,12.47
2023-01-17T23:17:11.022Z,14.30
2023-01-17T23:19:49.810Z,9.97
2023-01-17T23:22:16.476Z,15.57
2023-01-17T23:24:53.390Z,12.13
2023-01-17T23:27:53.307Z,11.20
2023-01-17T23:30:34.754Z,13.93
2023-01-17T23:33:12.505Z,11.70
2023-01-17T23:35:42.320Z,13.90
2023-01-17T23:38:29.424Z,11.67
2023-01-17T23:41:27.051Z,11.53
2023-01-17T23:43:55.886Z,14.27
2023-01-17T23:46:24.101Z,11.30
2023-01-17T23:48:51.526Z,12.40
2023-01-17T23:51:18.720Z,12.97
2023-01-17T23:53:45.487Z,15.07
2023-01-17T23:56:23.617Z,12.30
2023-01-17T23:58:50.409Z,12.47
